Pagina principale
METAR-TAF:

METAR-TAF

Aeroporti :

Montichiari

Brescia, Italia

latitudine: 45-24-02N, longitudine: 010-18-59E, altezza: 104 m

Osservazione

Il bollettino è stato emesso 35 minuti fa, alle 01:50 UTC
Vento 9 kt da ovest
Temperature 15°C
Umidità 77%
Pressione 1002 hPa
Visibilità 10 km o più

METAR: LIPO 160150Z AUTO 26009KT 9999 FEW220/// 15/11 Q1002

Ora: 04:25 (02:25 UTC)

Previsione

Il bollettino è stato emesso 3 ore e 25 minuti fa, alle 23:00 UTC
Previsione valida dal 16 alle 00 UTC al 16 alle 24 UTC
Vento 10 kt da ovest
Visibilità 10 km o più
Nubi sparse ad un'altezza di 4000 ft
Evoluzione graduale
dal 16 alle 10 UTC al 16 alle 12 UTC
Vento 14 kt da nord/nord-ovest
Temporaneamente
dal 16 alle 12 UTC al 16 alle 16 UTC
Vento 15 kt da ovest con raffiche fino a 25 kt
Evoluzione graduale
dal 16 alle 16 UTC al 16 alle 18 UTC
Vento 14 kt da est

TAF: LIPO 152300Z 1600/1624 28010KT 9999 SCT040 BECMG 1610/1612 34014KT TEMPO 1612/1616 28015G25KT BECMG 1616/1618 10014KT

Osservazioni e previsioni meteorologiche di più di 4000 aeroporti (messaggi METAR e TAF).

Le stazioni disponibili sono rappresentate dai dischi gialli e rossi sulla carta.

Puntare il mouse per vedere il nome della stazione.

Clicca sopra per visualizzare le osservazioni e previsioni meteorologiche.

Per cambiare la mappa : fare clic sui pulsanti verdi con una croce nera per ingrandire, il pulsante verde con un trattino per diminuire, o sulla freccia verde per le mappe adiacenti.


METAR-TAF: